sensor_id;sensor_type;location;lat;lon;timestamp;temperature;humidity
63966;DHT22;50151;52.030;5.350;2022-08-14T06:06:46;20.60;66.10
63966;DHT22;50151;52.030;5.350;2022-08-14T06:09:13;20.70;65.70
63966;DHT22;50151;52.030;5.350;2022-08-14T06:11:40;20.80;65.70
63966;DHT22;50151;52.030;5.350;2022-08-14T06:14:08;20.80;65.50
63966;DHT22;50151;52.030;5.350;2022-08-14T06:16:49;20.90;65.10
63966;DHT22;50151;52.030;5.350;2022-08-14T06:19:19;21.00;64.70
63966;DHT22;50151;52.030;5.350;2022-08-14T06:21:48;21.10;64.40
63966;DHT22;50151;52.030;5.350;2022-08-14T06:24:24;21.20;64.60
63966;DHT22;50151;52.030;5.350;2022-08-14T06:26:51;21.30;63.80
63966;DHT22;50151;52.030;5.350;2022-08-14T06:29:22;21.40;63.90
63966;DHT22;50151;52.030;5.350;2022-08-14T06:31:50;21.50;63.70
63966;DHT22;50151;52.030;5.350;2022-08-14T06:34:25;21.50;63.40
63966;DHT22;50151;52.030;5.350;2022-08-14T06:37:12;21.60;64.40
63966;DHT22;50151;52.030;5.350;2022-08-14T06:39:42;21.70;63.30
63966;DHT22;50151;52.030;5.350;2022-08-14T06:42:10;21.80;62.90
63966;DHT22;50151;52.030;5.350;2022-08-14T06:44:57;21.90;62.80
63966;DHT22;50151;52.030;5.350;2022-08-14T06:47:24;22.00;62.90
63966;DHT22;50151;52.030;5.350;2022-08-14T06:49:51;22.10;62.50
63966;DHT22;50151;52.030;5.350;2022-08-14T06:52:23;22.20;62.10
63966;DHT22;50151;52.030;5.350;2022-08-14T06:54:50;22.20;62.80
63966;DHT22;50151;52.030;5.350;2022-08-14T06:57:17;22.30;62.50
63966;DHT22;50151;52.030;5.350;2022-08-14T06:59:47;22.40;61.80
63966;DHT22;50151;52.030;5.350;2022-08-14T07:02:15;22.50;61.90
63966;DHT22;50151;52.030;5.350;2022-08-14T07:05:01;22.60;61.40
63966;DHT22;50151;52.030;5.350;2022-08-14T07:07:49;22.60;61.90
63966;DHT22;50151;52.030;5.350;2022-08-14T07:10:16;22.70;60.70
63966;DHT22;50151;52.030;5.350;2022-08-14T07:12:44;22.80;60.70
63966;DHT22;50151;52.030;5.350;2022-08-14T07:15:27;22.90;59.80
63966;DHT22;50151;52.030;5.350;2022-08-14T07:17:54;23.00;59.70
63966;DHT22;50151;52.030;5.350;2022-08-14T07:20:22;23.10;59.70
63966;DHT22;50151;52.030;5.350;2022-08-14T07:23:01;23.20;59.60
63966;DHT22;50151;52.030;5.350;2022-08-14T07:25:35;23.30;59.40
63966;DHT22;50151;52.030;5.350;2022-08-14T07:28:10;23.40;59.60
63966;DHT22;50151;52.030;5.350;2022-08-14T07:30:46;23.40;58.90
63966;DHT22;50151;52.030;5.350;2022-08-14T07:33:18;23.50;58.70
63966;DHT22;50151;52.030;5.350;2022-08-14T07:35:50;23.60;59.40
63966;DHT22;50151;52.030;5.350;2022-08-14T07:38:24;23.60;58.60
63966;DHT22;50151;52.030;5.350;2022-08-14T07:41:01;23.70;59.40
63966;DHT22;50151;52.030;5.350;2022-08-14T07:43:38;23.80;58.50
63966;DHT22;50151;52.030;5.350;2022-08-14T07:46:06;23.90;57.70
63966;DHT22;50151;52.030;5.350;2022-08-14T07:48:37;24.00;57.70
63966;DHT22;50151;52.030;5.350;2022-08-14T07:51:06;24.00;56.60
63966;DHT22;50151;52.030;5.350;2022-08-14T07:53:37;24.10;56.50
63966;DHT22;50151;52.030;5.350;2022-08-14T07:56:06;24.10;56.60
63966;DHT22;50151;52.030;5.350;2022-08-14T07:58:53;24.20;57.00
63966;DHT22;50151;52.030;5.350;2022-08-14T08:01:24;24.30;56.50
63966;DHT22;50151;52.030;5.350;2022-08-14T08:03:56;24.40;55.80
63966;DHT22;50151;52.030;5.350;2022-08-14T08:06:29;24.50;55.90
63966;DHT22;50151;52.030;5.350;2022-08-14T08:08:58;24.60;55.40
63966;DHT22;50151;52.030;5.350;2022-08-14T08:11:33;24.60;54.00
63966;DHT22;50151;52.030;5.350;2022-08-14T08:14:05;24.70;54.00
63966;DHT22;50151;52.030;5.350;2022-08-14T08:16:44;24.70;53.80
63966;DHT22;50151;52.030;5.350;2022-08-14T08:19:12;24.80;54.20
63966;DHT22;50151;52.030;5.350;2022-08-14T08:21:39;24.90;54.00
63966;DHT22;50151;52.030;5.350;2022-08-14T08:24:10;24.90;54.30
63966;DHT22;50151;52.030;5.350;2022-08-14T08:26:44;25.10;55.10
63966;DHT22;50151;52.030;5.350;2022-08-14T08:29:18;25.20;54.00
63966;DHT22;50151;52.030;5.350;2022-08-14T08:31:50;25.30;54.20
63966;DHT22;50151;52.030;5.350;2022-08-14T08:34:18;25.40;52.50
63966;DHT22;50151;52.030;5.350;2022-08-14T08:36:49;25.40;52.20
63966;DHT22;50151;52.030;5.350;2022-08-14T08:39:16;25.50;52.70
63966;DHT22;50151;52.030;5.350;2022-08-14T08:41:49;25.60;52.60
63966;DHT22;50151;52.030;5.350;2022-08-14T08:44:19;25.60;52.30
63966;DHT22;50151;52.030;5.350;2022-08-14T08:46:59;25.70;52.50
63966;DHT22;50151;52.030;5.350;2022-08-14T08:49:39;25.80;51.90
63966;DHT22;50151;52.030;5.350;2022-08-14T08:52:15;26.00;51.90
63966;DHT22;50151;52.030;5.350;2022-08-14T08:54:54;26.10;51.90
63966;DHT22;50151;52.030;5.350;2022-08-14T08:57:21;26.10;52.20
63966;DHT22;50151;52.030;5.350;2022-08-14T08:59:49;26.20;52.20
63966;DHT22;50151;52.030;5.350;2022-08-14T09:02:24;26.30;51.30
63966;DHT22;50151;52.030;5.350;2022-08-14T09:05:01;26.40;51.50
63966;DHT22;50151;52.030;5.350;2022-08-14T09:07:29;26.60;50.60
63966;DHT22;50151;52.030;5.350;2022-08-14T09:09:57;26.70;51.60
63966;DHT22;50151;52.030;5.350;2022-08-14T09:12:29;26.80;50.20
63966;DHT22;50151;52.030;5.350;2022-08-14T09:14:59;26.90;49.30
63966;DHT22;50151;52.030;5.350;2022-08-14T09:17:25;26.90;49.10
63966;DHT22;50151;52.030;5.350;2022-08-14T09:19:53;27.00;48.70
63966;DHT22;50151;52.030;5.350;2022-08-14T09:22:21;27.10;48.90
63966;DHT22;50151;52.030;5.350;2022-08-14T09:25:03;27.20;49.20
63966;DHT22;50151;52.030;5.350;2022-08-14T09:27:34;27.30;48.80
63966;DHT22;50151;52.030;5.350;2022-08-14T09:30:00;27.40;48.10
63966;DHT22;50151;52.030;5.350;2022-08-14T09:44:03;27.90;46.60
63966;DHT22;50151;52.030;5.350;2022-08-14T09:46:33;28.00;47.10
63966;DHT22;50151;52.030;5.350;2022-08-14T09:49:06;28.00;46.70
63966;DHT22;50151;52.030;5.350;2022-08-14T09:51:42;28.10;46.90
63966;DHT22;50151;52.030;5.350;2022-08-14T09:54:55;28.30;46.50
63966;DHT22;50151;52.030;5.350;2022-08-14T09:57:27;28.30;46.80
63966;DHT22;50151;52.030;5.350;2022-08-14T09:59:55;28.30;46.20
63966;DHT22;50151;52.030;5.350;2022-08-14T10:02:28;28.40;46.10
63966;DHT22;50151;52.030;5.350;2022-08-14T10:05:06;28.60;44.00
63966;DHT22;50151;52.030;5.350;2022-08-14T10:07:49;28.70;45.20
63966;DHT22;50151;52.030;5.350;2022-08-14T10:10:36;28.80;44.60
63966;DHT22;50151;52.030;5.350;2022-08-14T10:13:07;29.00;44.80
63966;DHT22;50151;52.030;5.350;2022-08-14T10:15:44;29.10;44.80
63966;DHT22;50151;52.030;5.350;2022-08-14T10:18:13;29.10;44.50
63966;DHT22;50151;52.030;5.350;2022-08-14T10:20:58;29.10;44.10
63966;DHT22;50151;52.030;5.350;2022-08-14T10:23:40;29.10;42.90
63966;DHT22;50151;52.030;5.350;2022-08-14T10:26:09;29.20;43.20
63966;DHT22;50151;52.030;5.350;2022-08-14T10:28:50;29.40;43.00
63966;DHT22;50151;52.030;5.350;2022-08-14T10:31:37;29.50;42.30
63966;DHT22;50151;52.030;5.350;2022-08-14T10:34:12;29.60;42.50
63966;DHT22;50151;52.030;5.350;2022-08-14T10:36:44;29.70;41.90
63966;DHT22;50151;52.030;5.350;2022-08-14T10:39:27;29.80;40.50
63966;DHT22;50151;52.030;5.350;2022-08-14T10:42:10;29.90;39.80
63966;DHT22;50151;52.030;5.350;2022-08-14T10:44:46;30.10;40.50
63966;DHT22;50151;52.030;5.350;2022-08-14T10:47:18;30.20;43.20
63966;DHT22;50151;52.030;5.350;2022-08-14T10:50:06;30.20;40.00
63966;DHT22;50151;52.030;5.350;2022-08-14T10:52:40;30.30;40.00
63966;DHT22;50151;52.030;5.350;2022-08-14T10:55:12;30.60;40.50
63966;DHT22;50151;52.030;5.350;2022-08-14T10:57:54;30.50;38.90
63966;DHT22;50151;52.030;5.350;2022-08-14T11:00:25;30.60;39.30
63966;DHT22;50151;52.030;5.350;2022-08-14T11:03:09;30.60;39.00
63966;DHT22;50151;52.030;5.350;2022-08-14T11:05:47;30.70;37.50
63966;DHT22;50151;52.030;5.350;2022-08-14T11:08:30;30.70;37.10
63966;DHT22;50151;52.030;5.350;2022-08-14T11:10:59;30.60;37.10
63966;DHT22;50151;52.030;5.350;2022-08-14T11:13:29;30.90;38.50
63966;DHT22;50151;52.030;5.350;2022-08-14T11:15:58;31.00;36.80
63966;DHT22;50151;52.030;5.350;2022-08-14T11:18:27;31.20;37.50
63966;DHT22;50151;52.030;5.350;2022-08-14T11:21:01;31.20;36.60
63966;DHT22;50151;52.030;5.350;2022-08-14T11:23:30;31.20;36.30
63966;DHT22;50151;52.030;5.350;2022-08-14T11:26:07;31.20;36.80
63966;DHT22;50151;52.030;5.350;2022-08-14T11:28:40;31.30;35.90
63966;DHT22;50151;52.030;5.350;2022-08-14T11:31:15;31.30;34.10
63966;DHT22;50151;52.030;5.350;2022-08-14T11:33:47;31.40;32.70
63966;DHT22;50151;52.030;5.350;2022-08-14T11:36:14;31.50;34.00
63966;DHT22;50151;52.030;5.350;2022-08-14T11:38:44;31.60;33.60
63966;DHT22;50151;52.030;5.350;2022-08-14T11:41:14;31.60;31.60
63966;DHT22;50151;52.030;5.350;2022-08-14T11:43:46;31.60;34.10
63966;DHT22;50151;52.030;5.350;2022-08-14T11:46:24;31.70;34.10
63966;DHT22;50151;52.030;5.350;2022-08-14T11:49:03;31.70;33.20
63966;DHT22;50151;52.030;5.350;2022-08-14T11:51:31;32.00;31.90
63966;DHT22;50151;52.030;5.350;2022-08-14T11:54:20;32.10;31.00
63966;DHT22;50151;52.030;5.350;2022-08-14T11:57:00;31.90;30.90
63966;DHT22;50151;52.030;5.350;2022-08-14T11:59:27;32.10;30.50
63966;DHT22;50151;52.030;5.350;2022-08-14T12:02:15;32.30;30.20
63966;DHT22;50151;52.030;5.350;2022-08-14T12:05:03;32.20;28.90
63966;DHT22;50151;52.030;5.350;2022-08-14T12:07:34;32.20;29.20
63966;DHT22;50151;52.030;5.350;2022-08-14T12:10:08;32.40;30.30
63966;DHT22;50151;52.030;5.350;2022-08-14T12:12:55;32.50;28.90
63966;DHT22;50151;52.030;5.350;2022-08-14T12:15:31;32.40;29.30
63966;DHT22;50151;52.030;5.350;2022-08-14T12:18:01;32.60;27.60
63966;DHT22;50151;52.030;5.350;2022-08-14T12:20:32;32.80;29.10
63966;DHT22;50151;52.030;5.350;2022-08-14T12:23:00;32.70;28.50
63966;DHT22;50151;52.030;5.350;2022-08-14T12:25:28;33.20;29.80
63966;DHT22;50151;52.030;5.350;2022-08-14T12:27:56;33.30;29.70
63966;DHT22;50151;52.030;5.350;2022-08-14T12:30:37;32.90;28.80
63966;DHT22;50151;52.030;5.350;2022-08-14T12:33:23;33.00;29.20
63966;DHT22;50151;52.030;5.350;2022-08-14T12:36:01;33.10;28.20
63966;DHT22;50151;52.030;5.350;2022-08-14T12:38:41;33.40;28.50
63966;DHT22;50151;52.030;5.350;2022-08-14T12:41:16;33.80;28.70
63966;DHT22;50151;52.030;5.350;2022-08-14T12:43:58;33.70;28.40
63966;DHT22;50151;52.030;5.350;2022-08-14T12:46:30;34.00;29.40
63966;DHT22;50151;52.030;5.350;2022-08-14T12:49:05;34.10;28.80
63966;DHT22;50151;52.030;5.350;2022-08-14T12:51:34;33.90;28.90
63966;DHT22;50151;52.030;5.350;2022-08-14T12:54:12;34.40;29.30
63966;DHT22;50151;52.030;5.350;2022-08-14T12:59:31;34.10;27.60
63966;DHT22;50151;52.030;5.350;2022-08-14T13:02:02;34.30;28.10
63966;DHT22;50151;52.030;5.350;2022-08-14T13:04:35;34.60;27.90
63966;DHT22;50151;52.030;5.350;2022-08-14T13:07:08;34.60;27.80
63966;DHT22;50151;52.030;5.350;2022-08-14T13:09:35;34.90;27.90
63966;DHT22;50151;52.030;5.350;2022-08-14T13:12:06;34.90;26.90
63966;DHT22;50151;52.030;5.350;2022-08-14T13:14:57;35.10;26.80
63966;DHT22;50151;52.030;5.350;2022-08-14T13:17:41;35.30;27.50
63966;DHT22;50151;52.030;5.350;2022-08-14T13:20:09;35.50;27.50
63966;DHT22;50151;52.030;5.350;2022-08-14T13:22:50;35.50;27.30
63966;DHT22;50151;52.030;5.350;2022-08-14T13:25:20;35.70;26.50
63966;DHT22;50151;52.030;5.350;2022-08-14T13:27:51;35.70;26.20
63966;DHT22;50151;52.030;5.350;2022-08-14T13:30:21;35.90;26.00
63966;DHT22;50151;52.030;5.350;2022-08-14T13:32:52;36.00;26.10
63966;DHT22;50151;52.030;5.350;2022-08-14T13:35:20;35.90;26.80
63966;DHT22;50151;52.030;5.350;2022-08-14T13:37:49;36.00;27.10
63966;DHT22;50151;52.030;5.350;2022-08-14T13:40:22;36.20;26.60
63966;DHT22;50151;52.030;5.350;2022-08-14T13:42:52;36.50;26.20
63966;DHT22;50151;52.030;5.350;2022-08-14T13:45:23;36.70;25.90
63966;DHT22;50151;52.030;5.350;2022-08-14T13:48:12;36.50;25.80
63966;DHT22;50151;52.030;5.350;2022-08-14T13:50:59;36.70;25.90
63966;DHT22;50151;52.030;5.350;2022-08-14T13:53:28;37.00;25.40
63966;DHT22;50151;52.030;5.350;2022-08-14T13:55:59;37.30;25.30
63966;DHT22;50151;52.030;5.350;2022-08-14T13:58:27;37.00;25.00
63966;DHT22;50151;52.030;5.350;2022-08-14T14:01:01;37.10;24.80
63966;DHT22;50151;52.030;5.350;2022-08-14T14:03:33;37.20;25.00
63966;DHT22;50151;52.030;5.350;2022-08-14T14:06:02;36.50;24.80
63966;DHT22;50151;52.030;5.350;2022-08-14T14:08:34;37.10;24.80
63966;DHT22;50151;52.030;5.350;2022-08-14T14:11:14;37.50;25.70
63966;DHT22;50151;52.030;5.350;2022-08-14T14:13:43;37.00;24.80
63966;DHT22;50151;52.030;5.350;2022-08-14T14:16:12;37.20;24.90
63966;DHT22;50151;52.030;5.350;2022-08-14T14:18:50;37.30;24.80
63966;DHT22;50151;52.030;5.350;2022-08-14T14:21:24;37.00;25.00
63966;DHT22;50151;52.030;5.350;2022-08-14T14:23:54;36.40;25.50
63966;DHT22;50151;52.030;5.350;2022-08-14T14:26:23;36.20;25.70
63966;DHT22;50151;52.030;5.350;2022-08-14T14:28:54;36.40;26.30
63966;DHT22;50151;52.030;5.350;2022-08-14T14:31:24;36.30;26.20
63966;DHT22;50151;52.030;5.350;2022-08-14T14:34:01;36.00;26.40
63966;DHT22;50151;52.030;5.350;2022-08-14T14:36:38;36.80;26.50
63966;DHT22;50151;52.030;5.350;2022-08-14T14:39:09;36.80;26.20
63966;DHT22;50151;52.030;5.350;2022-08-14T14:41:39;37.00;25.60
63966;DHT22;50151;52.030;5.350;2022-08-14T14:44:11;37.20;25.40
63966;DHT22;50151;52.030;5.350;2022-08-14T14:46:42;36.90;24.90
63966;DHT22;50151;52.030;5.350;2022-08-14T14:49:11;37.10;25.20
63966;DHT22;50151;52.030;5.350;2022-08-14T14:51:43;37.00;24.90
63966;DHT22;50151;52.030;5.350;2022-08-14T14:54:19;36.90;25.60
63966;DHT22;50151;52.030;5.350;2022-08-14T14:57:03;37.20;25.40
63966;DHT22;50151;52.030;5.350;2022-08-14T14:59:37;37.30;25.70
63966;DHT22;50151;52.030;5.350;2022-08-14T15:02:06;37.30;26.10
63966;DHT22;50151;52.030;5.350;2022-08-14T15:04:37;37.00;25.20
63966;DHT22;50151;52.030;5.350;2022-08-14T15:07:09;36.60;25.30
63966;DHT22;50151;52.030;5.350;2022-08-14T15:09:38;36.60;25.90
63966;DHT22;50151;52.030;5.350;2022-08-14T15:12:06;36.20;25.60
63966;DHT22;50151;52.030;5.350;2022-08-14T15:14:53;35.70;25.70
63966;DHT22;50151;52.030;5.350;2022-08-14T15:17:34;35.80;26.10
63966;DHT22;50151;52.030;5.350;2022-08-14T15:20:13;35.80;26.30
63966;DHT22;50151;52.030;5.350;2022-08-14T15:22:56;35.60;26.10
63966;DHT22;50151;52.030;5.350;2022-08-14T15:25:23;35.60;27.00
63966;DHT22;50151;52.030;5.350;2022-08-14T15:27:49;35.70;27.00
63966;DHT22;50151;52.030;5.350;2022-08-14T15:30:20;35.60;26.80
63966;DHT22;50151;52.030;5.350;2022-08-14T15:32:57;35.40;27.10
63966;DHT22;50151;52.030;5.350;2022-08-14T15:35:24;35.20;27.10
63966;DHT22;50151;52.030;5.350;2022-08-14T15:37:51;35.20;27.80
63966;DHT22;50151;52.030;5.350;2022-08-14T15:40:22;35.10;27.50
63966;DHT22;50151;52.030;5.350;2022-08-14T15:42:48;35.10;27.80
63966;DHT22;50151;52.030;5.350;2022-08-14T15:45:15;35.10;26.60
63966;DHT22;50151;52.030;5.350;2022-08-14T15:47:42;34.90;27.00
63966;DHT22;50151;52.030;5.350;2022-08-14T15:50:10;35.00;27.60
63966;DHT22;50151;52.030;5.350;2022-08-14T15:52:39;35.00;27.10
63966;DHT22;50151;52.030;5.350;2022-08-14T15:55:10;34.80;27.60
63966;DHT22;50151;52.030;5.350;2022-08-14T15:57:41;34.90;28.20
63966;DHT22;50151;52.030;5.350;2022-08-14T16:00:28;34.90;28.20
63966;DHT22;50151;52.030;5.350;2022-08-14T16:03:17;34.90;28.50
63966;DHT22;50151;52.030;5.350;2022-08-14T16:06:04;34.80;28.30
63966;DHT22;50151;52.030;5.350;2022-08-14T16:08:37;34.80;28.50
63966;DHT22;50151;52.030;5.350;2022-08-14T16:11:07;34.50;28.40
63966;DHT22;50151;52.030;5.350;2022-08-14T16:13:36;34.50;27.60
63966;DHT22;50151;52.030;5.350;2022-08-14T16:16:23;34.50;28.00
63966;DHT22;50151;52.030;5.350;2022-08-14T16:19:11;34.50;28.20
63966;DHT22;50151;52.030;5.350;2022-08-14T16:21:39;34.40;28.10
63966;DHT22;50151;52.030;5.350;2022-08-14T16:24:27;34.50;28.90
63966;DHT22;50151;52.030;5.350;2022-08-14T16:26:56;34.30;28.50
63966;DHT22;50151;52.030;5.350;2022-08-14T16:29:28;34.30;28.20
63966;DHT22;50151;52.030;5.350;2022-08-14T16:31:58;34.00;28.50
63966;DHT22;50151;52.030;5.350;2022-08-14T16:34:27;34.40;29.00
63966;DHT22;50151;52.030;5.350;2022-08-14T16:37:14;34.30;29.20
63966;DHT22;50151;52.030;5.350;2022-08-14T16:39:46;34.00;29.40
63966;DHT22;50151;52.030;5.350;2022-08-14T16:42:14;34.00;29.40
63966;DHT22;50151;52.030;5.350;2022-08-14T16:45:02;34.00;29.70
63966;DHT22;50151;52.030;5.350;2022-08-14T16:47:29;34.10;30.10
63966;DHT22;50151;52.030;5.350;2022-08-14T16:50:00;33.90;29.50
63966;DHT22;50151;52.030;5.350;2022-08-14T16:52:34;33.90;29.80
63966;DHT22;50151;52.030;5.350;2022-08-14T16:55:20;33.60;29.70
63966;DHT22;50151;52.030;5.350;2022-08-14T16:57:56;33.50;30.90
63966;DHT22;50151;52.030;5.350;2022-08-14T17:00:34;33.60;32.60
63966;DHT22;50151;52.030;5.350;2022-08-14T17:03:11;33.50;33.10
63966;DHT22;50151;52.030;5.350;2022-08-14T17:05:40;33.40;34.50
63966;DHT22;50151;52.030;5.350;2022-08-14T17:08:11;33.20;35.70
63966;DHT22;50151;52.030;5.350;2022-08-14T17:11:00;33.20;34.60
63966;DHT22;50151;52.030;5.350;2022-08-14T17:13:36;33.10;35.20
63966;DHT22;50151;52.030;5.350;2022-08-14T17:16:24;33.00;35.40
63966;DHT22;50151;52.030;5.350;2022-08-14T17:18:53;32.80;35.90
63966;DHT22;50151;52.030;5.350;2022-08-14T17:21:34;32.70;35.50
63966;DHT22;50151;52.030;5.350;2022-08-14T17:24:07;32.60;36.60
63966;DHT22;50151;52.030;5.350;2022-08-14T17:26:56;32.50;36.10
63966;DHT22;50151;52.030;5.350;2022-08-14T17:29:28;32.50;36.10
63966;DHT22;50151;52.030;5.350;2022-08-14T17:32:12;32.40;36.20
63966;DHT22;50151;52.030;5.350;2022-08-14T17:34:59;32.40;36.80
63966;DHT22;50151;52.030;5.350;2022-08-14T17:37:33;32.20;36.80
63966;DHT22;50151;52.030;5.350;2022-08-14T17:45:39;32.00;37.00
63966;DHT22;50151;52.030;5.350;2022-08-14T17:48:29;31.90;37.70
63966;DHT22;50151;52.030;5.350;2022-08-14T17:51:16;31.80;38.30
63966;DHT22;50151;52.030;5.350;2022-08-14T17:53:51;31.60;38.70
63966;DHT22;50151;52.030;5.350;2022-08-14T17:56:27;31.50;39.20
63966;DHT22;50151;52.030;5.350;2022-08-14T17:59:03;31.30;40.00
63966;DHT22;50151;52.030;5.350;2022-08-14T18:01:36;31.20;40.30
63966;DHT22;50151;52.030;5.350;2022-08-14T18:04:06;31.10;41.10
63966;DHT22;50151;52.030;5.350;2022-08-14T18:06:55;30.90;41.00
63966;DHT22;50151;52.030;5.350;2022-08-14T18:09:36;30.90;41.50
63966;DHT22;50151;52.030;5.350;2022-08-14T18:12:27;30.80;41.20
63966;DHT22;50151;52.030;5.350;2022-08-14T18:15:10;30.70;41.30
63966;DHT22;50151;52.030;5.350;2022-08-14T18:17:44;30.70;42.00
63966;DHT22;50151;52.030;5.350;2022-08-14T18:20:21;30.50;42.70
63966;DHT22;50151;52.030;5.350;2022-08-14T18:23:09;30.50;43.10
63966;DHT22;50151;52.030;5.350;2022-08-14T18:25:45;30.40;43.80
63966;DHT22;50151;52.030;5.350;2022-08-14T18:28:13;30.20;44.00
63966;DHT22;50151;52.030;5.350;2022-08-14T18:30:43;30.10;44.40
63966;DHT22;50151;52.030;5.350;2022-08-14T18:33:24;30.00;44.80
63966;DHT22;50151;52.030;5.350;2022-08-14T18:35:52;29.90;44.60
63966;DHT22;50151;52.030;5.350;2022-08-14T18:38:27;29.80;45.10
63966;DHT22;50151;52.030;5.350;2022-08-14T18:41:25;29.70;45.00
63966;DHT22;50151;52.030;5.350;2022-08-14T18:44:04;29.70;44.70
63966;DHT22;50151;52.030;5.350;2022-08-14T19:03:00;28.90;45.10
63966;DHT22;50151;52.030;5.350;2022-08-14T19:11:01;28.40;46.10
63966;DHT22;50151;52.030;5.350;2022-08-14T19:13:38;28.40;46.10
63966;DHT22;50151;52.030;5.350;2022-08-14T19:16:21;28.30;46.20
63966;DHT22;50151;52.030;5.350;2022-08-14T19:18:54;28.20;46.40
63966;DHT22;50151;52.030;5.350;2022-08-14T19:21:29;28.20;46.60
63966;DHT22;50151;52.030;5.350;2022-08-14T19:27:20;28.00;46.70
63966;DHT22;50151;52.030;5.350;2022-08-14T19:32:50;27.80;47.10
63966;DHT22;50151;52.030;5.350;2022-08-14T19:41:14;27.80;46.90
63966;DHT22;50151;52.030;5.350;2022-08-14T19:43:42;27.80;47.50
63966;DHT22;50151;52.030;5.350;2022-08-14T19:46:28;27.80;46.70
63966;DHT22;50151;52.030;5.350;2022-08-14T19:49:14;27.70;47.30
63966;DHT22;50151;52.030;5.350;2022-08-14T19:51:49;27.60;47.20
63966;DHT22;50151;52.030;5.350;2022-08-14T19:54:16;27.60;47.50
63966;DHT22;50151;52.030;5.350;2022-08-14T19:56:44;27.50;47.90
63966;DHT22;50151;52.030;5.350;2022-08-14T19:59:16;27.40;48.20
63966;DHT22;50151;52.030;5.350;2022-08-14T20:01:44;27.30;48.10
63966;DHT22;50151;52.030;5.350;2022-08-14T20:04:21;27.30;48.40
63966;DHT22;50151;52.030;5.350;2022-08-14T20:07:09;27.20;48.60
63966;DHT22;50151;52.030;5.350;2022-08-14T20:09:52;27.10;48.80
63966;DHT22;50151;52.030;5.350;2022-08-14T20:12:38;27.00;48.50
63966;DHT22;50151;52.030;5.350;2022-08-14T20:15:28;27.00;48.80
63966;DHT22;50151;52.030;5.350;2022-08-14T20:18:13;26.90;48.70
63966;DHT22;50151;52.030;5.350;2022-08-14T20:21:02;26.90;49.30
63966;DHT22;50151;52.030;5.350;2022-08-14T20:23:30;26.80;49.40
63966;DHT22;50151;52.030;5.350;2022-08-14T20:26:17;26.90;49.40
63966;DHT22;50151;52.030;5.350;2022-08-14T20:29:00;26.70;50.00
63966;DHT22;50151;52.030;5.350;2022-08-14T20:31:33;26.60;50.20
63966;DHT22;50151;52.030;5.350;2022-08-14T20:36:35;26.50;50.60
63966;DHT22;50151;52.030;5.350;2022-08-14T20:39:07;26.50;50.20
63966;DHT22;50151;52.030;5.350;2022-08-14T20:41:44;26.50;50.30
63966;DHT22;50151;52.030;5.350;2022-08-14T20:44:21;26.50;50.80
63966;DHT22;50151;52.030;5.350;2022-08-14T20:47:07;26.50;50.90
63966;DHT22;50151;52.030;5.350;2022-08-14T20:49:40;26.50;51.10
63966;DHT22;50151;52.030;5.350;2022-08-14T20:52:08;26.40;51.00
63966;DHT22;50151;52.030;5.350;2022-08-14T20:54:45;26.40;50.70
63966;DHT22;50151;52.030;5.350;2022-08-14T20:57:16;26.40;51.10
63966;DHT22;50151;52.030;5.350;2022-08-14T20:59:45;26.30;51.40
63966;DHT22;50151;52.030;5.350;2022-08-14T21:05:03;26.20;51.90
63966;DHT22;50151;52.030;5.350;2022-08-14T21:07:45;26.20;52.20
63966;DHT22;50151;52.030;5.350;2022-08-14T21:10:26;26.10;52.30
63966;DHT22;50151;52.030;5.350;2022-08-14T21:13:00;26.00;52.20
63966;DHT22;50151;52.030;5.350;2022-08-14T21:15:48;26.00;52.70
63966;DHT22;50151;52.030;5.350;2022-08-14T21:18:29;25.90;52.80
63966;DHT22;50151;52.030;5.350;2022-08-14T21:20:59;25.90;53.10
63966;DHT22;50151;52.030;5.350;2022-08-14T21:23:36;25.90;53.30
63966;DHT22;50151;52.030;5.350;2022-08-14T21:26:22;25.80;53.20
63966;DHT22;50151;52.030;5.350;2022-08-14T21:29:09;25.70;53.70
63966;DHT22;50151;52.030;5.350;2022-08-14T21:31:39;25.70;53.90
63966;DHT22;50151;52.030;5.350;2022-08-14T21:34:05;25.70;53.80
63966;DHT22;50151;52.030;5.350;2022-08-14T21:36:52;25.60;54.00
63966;DHT22;50151;52.030;5.350;2022-08-14T21:39:23;25.60;53.80
63966;DHT22;50151;52.030;5.350;2022-08-14T21:41:51;25.50;53.80
63966;DHT22;50151;52.030;5.350;2022-08-14T21:44:26;25.50;54.10
63966;DHT22;50151;52.030;5.350;2022-08-14T21:47:11;25.50;53.90
63966;DHT22;50151;52.030;5.350;2022-08-14T21:49:38;25.50;53.90
63966;DHT22;50151;52.030;5.350;2022-08-14T21:52:10;25.50;54.50
63966;DHT22;50151;52.030;5.350;2022-08-14T21:54:58;25.40;54.50
63966;DHT22;50151;52.030;5.350;2022-08-14T21:57:25;25.40;54.70
63966;DHT22;50151;52.030;5.350;2022-08-14T22:00:19;25.40;54.70
63966;DHT22;50151;52.030;5.350;2022-08-14T22:03:04;25.40;54.20
63966;DHT22;50151;52.030;5.350;2022-08-14T22:05:36;25.30;54.80
63966;DHT22;50151;52.030;5.350;2022-08-14T22:08:04;25.30;54.70
63966;DHT22;50151;52.030;5.350;2022-08-14T22:10:33;25.30;55.00
63966;DHT22;50151;52.030;5.350;2022-08-14T22:13:00;25.40;54.40
